Time;durP1;ratioP1;P1;durP2;ratioP2;P2;SDS_P1;SDS_P2;PMS_P1;PMS_P2;Temp;Humidity;BMP_temperature;BMP_pressure;BME280_temperature;BME280_humidity;BME280_pressure;Samples;Min_cycle;Max_cycle;Signal;HPM_P1;HPM_P2
2023/05/26 00:01:18;;;;;;;11.23;8.27;;;18.90;73.30;;;;;;5023230;28;20431;-65
2023/05/26 00:03:48;;;;;;;9.57;6.70;;;18.90;73.50;;;;;;5022321;28;20571;-66
2023/05/26 00:06:15;;;;;;;8.97;8.03;;;18.90;73.80;;;;;;5025387;28;20766;-66
2023/05/26 00:08:40;;;;;;;10.73;7.60;;;18.90;75.10;;;;;;5020739;28;20459;-65
2023/05/26 00:11:07;;;;;;;9.00;7.37;;;18.90;74.40;;;;;;5023244;28;20435;-66
2023/05/26 00:13:33;;;;;;;11.10;9.00;;;18.90;74.60;;;;;;5017705;28;20263;-66
2023/05/26 00:16:00;;;;;;;8.97;7.87;;;18.80;74.80;;;;;;5024316;28;20424;-65
2023/05/26 00:18:26;;;;;;;9.43;7.87;;;18.80;75.00;;;;;;5023828;28;20461;-66
2023/05/26 00:20:52;;;;;;;7.73;6.93;;;18.80;75.50;;;;;;5022037;28;20435;-65
2023/05/26 00:23:18;;;;;;;9.90;7.43;;;18.70;75.50;;;;;;5020391;28;20411;-65
2023/05/26 00:25:44;;;;;;;10.50;8.07;;;18.70;75.60;;;;;;5030268;28;20780;-65
2023/05/26 00:28:09;;;;;;;7.23;6.53;;;18.70;75.90;;;;;;5024915;28;20219;-65
2023/05/26 00:30:35;;;;;;;10.43;7.93;;;18.70;76.30;;;;;;5027446;28;20271;-66
2023/05/26 00:33:00;;;;;;;9.60;7.23;;;18.60;76.50;;;;;;5025333;28;20180;-65
2023/05/26 00:35:26;;;;;;;10.47;7.77;;;18.60;77.00;;;;;;5027155;28;20219;-66
2023/05/26 00:37:52;;;;;;;8.33;7.00;;;18.50;77.20;;;;;;5022368;28;20453;-65
2023/05/26 00:40:18;;;;;;;7.93;7.13;;;18.50;77.60;;;;;;5020365;28;20181;-65
2023/05/26 00:42:44;;;;;;;9.30;8.30;;;18.50;77.80;;;;;;5023679;28;20169;-65
2023/05/26 00:45:10;;;;;;;14.03;7.77;;;18.40;78.20;;;;;;5020487;28;20439;-65
2023/05/26 00:47:35;;;;;;;10.77;7.80;;;18.40;79.50;;;;;;5015884;28;20231;-65
2023/05/26 00:50:02;;;;;;;11.93;7.87;;;18.30;78.80;;;;;;5023507;28;20438;-65
2023/05/26 00:52:29;;;;;;;13.47;8.07;;;18.30;79.10;;;;;;5020972;28;20476;-65
2023/05/26 00:54:55;;;;;;;10.30;7.77;;;18.20;79.50;;;;;;5012674;28;20505;-66
2023/05/26 00:57:21;;;;;;;11.40;7.93;;;18.20;79.90;;;;;;5014494;28;20432;-65
2023/05/26 00:59:47;;;;;;;12.10;7.83;;;18.20;80.30;;;;;;5019193;28;20435;-66
2023/05/26 01:02:14;;;;;;;7.90;7.10;;;18.10;80.70;;;;;;5009829;28;20189;-65
2023/05/26 01:04:41;;;;;;;11.10;8.87;;;18.10;81.00;;;;;;5023166;28;20430;-65
2023/05/26 01:07:09;;;;;;;10.80;7.13;;;18.00;81.80;;;;;;5016977;28;21360;-65
2023/05/26 01:09:35;;;;;;;16.57;8.00;;;18.00;81.70;;;;;;5017958;28;20442;-65
2023/05/26 01:12:07;;;;;;;10.27;7.43;;;18.00;82.20;;;;;;5017832;28;21074;-65
2023/05/26 01:14:41;;;;;;;10.73;7.90;;;17.90;82.50;;;;;;5017777;28;20243;-66
2023/05/26 01:17:17;;;;;;;10.03;8.33;;;17.90;82.80;;;;;;5021401;28;20956;-65
2023/05/26 01:20:17;;;;;;;8.47;7.67;;;17.90;83.20;;;;;;5022461;28;20446;-65
2023/05/26 01:22:47;;;;;;;10.60;7.00;;;17.90;83.80;;;;;;5000409;28;20554;-65
2023/05/26 01:25:35;;;;;;;12.33;8.67;;;17.90;84.20;;;;;;5027902;28;20430;-65
2023/05/26 01:28:12;;;;;;;9.67;7.87;;;17.80;84.50;;;;;;5022005;28;20503;-65
2023/05/26 01:30:39;;;;;;;8.33;7.30;;;17.80;84.80;;;;;;5019557;28;20402;-65
2023/05/26 01:33:05;;;;;;;10.50;7.20;;;17.80;85.30;;;;;;5020925;28;20455;-65
2023/05/26 01:35:30;;;;;;;9.40;7.63;;;17.80;85.80;;;;;;5023320;28;20552;-65
2023/05/26 01:37:57;;;;;;;8.40;7.17;;;17.80;85.90;;;;;;5016118;28;20181;-65
2023/05/26 01:40:23;;;;;;;11.13;8.60;;;17.80;86.10;;;;;;5022018;28;20180;-65
2023/05/26 01:43:03;;;;;;;11.50;8.13;;;17.70;86.30;;;;;;5023700;28;21006;-65
2023/05/26 01:46:07;;;;;;;9.07;7.97;;;17.70;86.70;;;;;;5022229;28;20510;-65
2023/05/26 01:48:36;;;;;;;8.10;7.23;;;17.70;87.70;;;;;;5020733;28;20435;-65
2023/05/26 01:51:04;;;;;;;14.20;8.50;;;17.70;87.00;;;;;;5020939;28;20885;-65
2023/05/26 01:53:32;;;;;;;10.53;8.10;;;17.60;87.50;;;;;;5020638;28;20846;-65
2023/05/26 01:55:59;;;;;;;10.03;7.60;;;17.60;88.00;;;;;;5021379;28;20473;-65
2023/05/26 01:58:28;;;;;;;14.83;8.33;;;17.60;88.10;;;;;;5024046;28;20427;-65
2023/05/26 02:00:54;;;;;;;10.83;8.07;;;17.60;88.50;;;;;;5025006;28;20849;-65
2023/05/26 02:03:20;;;;;;;11.73;8.50;;;17.50;88.80;;;;;;5016245;28;20446;-65
2023/05/26 02:05:46;;;;;;;8.53;7.57;;;17.50;88.90;;;;;;5021991;28;20176;-66
2023/05/26 02:08:12;;;;;;;12.53;8.40;;;17.50;89.20;;;;;;5022880;28;20439;-65
2023/05/26 02:10:38;;;;;;;10.27;8.10;;;17.50;89.60;;;;;;5017672;28;20576;-65
2023/05/26 02:13:05;;;;;;;10.90;8.30;;;17.50;89.70;;;;;;5023567;28;20419;-65
2023/05/26 02:15:30;;;;;;;9.10;8.20;;;17.50;90.00;;;;;;5021742;28;20482;-65
2023/05/26 02:17:57;;;;;;;10.57;8.37;;;17.50;90.10;;;;;;5024306;28;20505;-65
2023/05/26 02:20:24;;;;;;;15.47;7.93;;;17.40;90.20;;;;;;5031216;28;20199;-65
2023/05/26 02:22:49;;;;;;;11.53;7.87;;;17.40;90.30;;;;;;5020927;28;20476;-65
2023/05/26 02:25:15;;;;;;;10.10;9.10;;;17.40;90.50;;;;;;5026080;28;20415;-65
2023/05/26 02:27:41;;;;;;;12.70;8.27;;;17.40;90.50;;;;;;5021673;28;20191;-65
2023/05/26 02:30:07;;;;;;;12.03;7.83;;;17.40;90.60;;;;;;5024889;28;20435;-65
2023/05/26 02:32:34;;;;;;;8.93;7.90;;;17.30;90.70;;;;;;5030819;28;20187;-65
2023/05/26 02:35:01;;;;;;;12.00;9.07;;;17.30;90.90;;;;;;5016973;28;20469;-66
2023/05/26 02:37:26;;;;;;;12.73;8.17;;;17.30;91.00;;;;;;5012754;28;20436;-66
2023/05/26 02:39:53;;;;;;;8.57;7.13;;;17.30;91.00;;;;;;5020747;28;20443;-65
2023/05/26 02:42:18;;;;;;;8.50;7.57;;;17.30;91.10;;;;;;5029117;28;20206;-65
2023/05/26 02:44:44;;;;;;;10.17;7.97;;;17.30;91.30;;;;;;5019530;28;20456;-65
2023/05/26 02:47:10;;;;;;;12.53;7.47;;;17.20;91.50;;;;;;5027209;28;20375;-65
2023/05/26 02:49:36;;;;;;;11.33;8.47;;;17.20;91.50;;;;;;5016042;28;20436;-65
2023/05/26 02:52:01;;;;;;;9.80;8.07;;;17.20;91.70;;;;;;5020571;28;20177;-65
2023/05/26 02:54:27;;;;;;;9.00;8.10;;;17.20;91.80;;;;;;5017005;28;20218;-65
2023/05/26 02:56:52;;;;;;;11.10;10.00;;;17.10;91.90;;;;;;5020947;28;20310;-65
2023/05/26 02:59:18;;;;;;;8.63;7.77;;;17.10;92.10;;;;;;5020763;28;20514;-65
2023/05/26 03:01:44;;;;;;;9.30;7.80;;;17.00;92.20;;;;;;5022209;28;20185;-65
2023/05/26 03:04:09;;;;;;;19.40;8.60;;;17.00;92.50;;;;;;5018771;28;20176;-65
2023/05/26 03:06:36;;;;;;;12.90;8.83;;;17.00;92.50;;;;;;5021374;28;20173;-65
2023/05/26 03:09:01;;;;;;;10.33;7.80;;;16.90;92.60;;;;;;5023812;28;20200;-65
2023/05/26 03:11:27;;;;;;;11.47;8.67;;;16.90;92.80;;;;;;5026195;28;20423;-66
2023/05/26 03:13:52;;;;;;;9.27;8.13;;;16.80;93.00;;;;;;5023956;28;20661;-65
2023/05/26 03:16:19;;;;;;;11.50;8.40;;;16.80;93.30;;;;;;5024608;28;20651;-65
2023/05/26 03:18:45;;;;;;;10.53;8.53;;;16.80;93.80;;;;;;5018691;28;20199;-65
2023/05/26 03:21:10;;;;;;;14.47;9.13;;;16.70;93.50;;;;;;5030331;28;20410;-65
2023/05/26 03:23:36;;;;;;;10.40;8.30;;;16.70;93.60;;;;;;5018679;28;20187;-65
2023/05/26 03:26:02;;;;;;;10.57;8.90;;;16.70;93.80;;;;;;5030097;28;20521;-65
2023/05/26 03:28:28;;;;;;;11.83;8.27;;;16.60;94.00;;;;;;5021208;28;20348;-65
2023/05/26 03:30:53;;;;;;;10.60;8.90;;;16.70;94.20;;;;;;5024793;28;20951;-65
2023/05/26 03:33:19;;;;;;;13.63;8.20;;;16.60;94.30;;;;;;5022588;28;20183;-65
2023/05/26 03:35:45;;;;;;;9.07;8.17;;;16.60;94.50;;;;;;5023054;28;20219;-65
2023/05/26 03:38:10;;;;;;;10.80;8.53;;;16.60;94.60;;;;;;5020151;28;20201;-65
2023/05/26 03:40:36;;;;;;;11.90;8.37;;;16.60;94.80;;;;;;5028670;28;20177;-65
2023/05/26 03:43:01;;;;;;;15.80;9.47;;;16.60;94.90;;;;;;5019097;28;20187;-65
2023/05/26 03:45:27;;;;;;;9.70;8.70;;;16.50;95.10;;;;;;5020528;28;20188;-65
2023/05/26 03:47:53;;;;;;;13.07;9.10;;;16.50;95.20;;;;;;5023801;28;20470;-65
2023/05/26 03:50:19;;;;;;;10.90;9.23;;;16.50;95.30;;;;;;5021705;28;20431;-65
2023/05/26 03:52:45;;;;;;;14.40;9.30;;;16.40;95.50;;;;;;5023252;28;20268;-65
2023/05/26 03:55:11;;;;;;;11.23;9.17;;;16.40;95.50;;;;;;5024722;28;20201;-66
2023/05/26 03:57:37;;;;;;;11.93;9.33;;;16.40;95.80;;;;;;5024918;28;20457;-65
2023/05/26 04:00:10;;;;;;;11.93;8.93;;;16.40;96.00;;;;;;5026309;28;20194;-65
2023/05/26 04:02:35;;;;;;;13.03;9.87;;;16.30;96.10;;;;;;5016029;28;20436;-65
2023/05/26 04:05:02;;;;;;;10.63;8.50;;;16.30;96.30;;;;;;5027114;28;20480;-65
2023/05/26 04:07:28;;;;;;;11.63;9.27;;;16.20;96.50;;;;;;5021588;28;20590;-65
2023/05/26 04:09:53;;;;;;;10.40;8.50;;;16.20;96.60;;;;;;5026243;28;20435;-65
2023/05/26 04:12:19;;;;;;;13.00;10.10;;;16.20;96.70;;;;;;5026234;28;20420;-65
2023/05/26 04:14:44;;;;;;;12.40;10.57;;;16.20;97.00;;;;;;5026915;28;20287;-65
2023/05/26 04:17:10;;;;;;;13.60;9.90;;;16.20;97.20;;;;;;5023064;28;20571;-65
2023/05/26 04:19:35;;;;;;;12.13;8.63;;;16.20;97.30;;;;;;5024570;28;20212;-65
2023/05/26 04:22:01;;;;;;;12.53;9.37;;;16.20;97.60;;;;;;5028131;28;20175;-65
2023/05/26 04:24:27;;;;;;;12.60;9.60;;;16.20;97.70;;;;;;5020935;28;20179;-65
2023/05/26 04:26:52;;;;;;;14.00;10.03;;;16.20;98.00;;;;;;5016470;28;20195;-65
2023/05/26 04:29:20;;;;;;;11.20;9.80;;;16.20;98.10;;;;;;5019573;28;20220;-65
2023/05/26 04:31:46;;;;;;;11.03;9.43;;;16.20;98.30;;;;;;5023180;28;20200;-65
2023/05/26 04:34:12;;;;;;;14.40;9.00;;;16.10;98.40;;;;;;5017661;28;20520;-65
2023/05/26 04:36:40;;;;;;;11.33;9.83;;;16.10;98.60;;;;;;5016849;28;20440;-65
2023/05/26 04:39:06;;;;;;;16.80;9.87;;;16.10;98.80;;;;;;5018820;28;20199;-65
2023/05/26 04:41:35;;;;;;;12.90;11.10;;;16.10;99.10;;;;;;5020794;28;20412;-65
2023/05/26 04:44:01;;;;;;;11.40;9.40;;;16.10;99.10;;;;;;5015810;28;20176;-65
2023/05/26 04:46:28;;;;;;;16.50;9.90;;;16.10;99.40;;;;;;5018747;28;20495;-65
2023/05/26 04:48:56;;;;;;;21.57;10.30;;;16.00;99.70;;;;;;5017922;28;20228;-65
2023/05/26 04:51:22;;;;;;;13.17;10.10;;;16.00;99.80;;;;;;5021765;28;20903;-65
2023/05/26 04:53:48;;;;;;;11.33;8.93;;;16.00;99.90;;;;;;5022685;28;20447;-65
2023/05/26 04:56:14;;;;;;;15.60;10.80;;;16.00;99.90;;;;;;5019057;28;20471;-65
2023/05/26 04:58:39;;;;;;;15.10;10.13;;;16.00;99.90;;;;;;5021375;28;20189;-65
2023/05/26 05:01:05;;;;;;;12.83;9.77;;;16.00;99.90;;;;;;5015816;28;20184;-65
2023/05/26 05:03:34;;;;;;;13.30;10.23;;;16.00;99.90;;;;;;5020423;28;20690;-65
2023/05/26 05:06:00;;;;;;;15.33;10.93;;;15.90;99.90;;;;;;5022491;28;21024;-65
2023/05/26 05:08:26;;;;;;;14.73;10.80;;;15.90;99.90;;;;;;5020455;28;20447;-65
2023/05/26 05:10:51;;;;;;;17.40;10.23;;;16.00;99.90;;;;;;5022294;28;20425;-65
2023/05/26 05:13:17;;;;;;;15.40;9.50;;;15.90;99.90;;;;;;5026424;28;20454;-66
2023/05/26 05:15:43;;;;;;;17.00;11.77;;;15.90;99.90;;;;;;5016979;28;20671;-65
2023/05/26 05:18:08;;;;;;;18.43;11.40;;;15.90;99.90;;;;;;5023925;28;20203;-65
2023/05/26 05:20:34;;;;;;;11.90;10.33;;;15.90;99.90;;;;;;5017088;28;20271;-66
2023/05/26 05:23:00;;;;;;;15.83;10.27;;;15.90;99.90;;;;;;5019252;28;20793;-65
2023/05/26 05:25:26;;;;;;;11.73;9.90;;;15.90;99.90;;;;;;5021784;28;20187;-65
2023/05/26 05:27:51;;;;;;;15.47;10.80;;;15.90;99.90;;;;;;5019311;28;20428;-65
2023/05/26 05:30:17;;;;;;;16.43;11.43;;;15.90;99.90;;;;;;5025365;28;20235;-65
2023/05/26 05:32:43;;;;;;;19.13;10.40;;;15.90;99.90;;;;;;5023714;28;20188;-65
2023/05/26 05:35:10;;;;;;;11.80;9.60;;;15.90;99.90;;;;;;5018981;28;20467;-65
2023/05/26 05:37:36;;;;;;;12.67;10.80;;;15.90;99.90;;;;;;5023564;28;20509;-65
2023/05/26 05:40:02;;;;;;;16.63;10.43;;;15.90;99.90;;;;;;5022646;28;20798;-65
2023/05/26 05:42:28;;;;;;;14.80;9.70;;;15.90;99.90;;;;;;5021059;28;20412;-64
2023/05/26 05:44:53;;;;;;;15.00;10.87;;;15.90;99.90;;;;;;5022239;28;20431;-65
2023/05/26 05:47:19;;;;;;;13.63;10.37;;;15.90;99.90;;;;;;5015897;28;20185;-65
2023/05/26 05:49:45;;;;;;;13.70;10.17;;;15.90;99.90;;;;;;5025600;28;20205;-65
2023/05/26 05:52:10;;;;;;;23.87;11.03;;;16.00;99.90;;;;;;5023467;28;20184;-65
2023/05/26 05:54:36;;;;;;;19.40;10.83;;;16.00;99.90;;;;;;5024270;28;20383;-65
2023/05/26 05:57:02;;;;;;;15.47;10.60;;;16.00;99.90;;;;;;5029617;28;20177;-65
2023/05/26 05:59:28;;;;;;;14.70;11.23;;;16.10;99.90;;;;;;5016696;28;20976;-64
2023/05/26 06:01:53;;;;;;;18.13;10.70;;;16.10;99.90;;;;;;5025619;28;20197;-65
2023/05/26 06:04:19;;;;;;;15.00;10.97;;;16.20;99.90;;;;;;5024338;28;20224;-65
2023/05/26 06:06:45;;;;;;;15.97;9.70;;;16.20;99.90;;;;;;5024693;28;20854;-65
2023/05/26 06:09:11;;;;;;;11.93;10.60;;;16.30;99.90;;;;;;5017568;28;20197;-65
2023/05/26 06:11:37;;;;;;;21.83;10.13;;;16.30;99.90;;;;;;5021110;28;20705;-64
2023/05/26 06:14:02;;;;;;;18.60;10.27;;;16.30;99.90;;;;;;5021797;28;20629;-64
2023/05/26 06:16:28;;;;;;;11.77;10.57;;;16.40;99.90;;;;;;5028263;28;20188;-64
2023/05/26 06:18:53;;;;;;;14.83;10.20;;;16.50;99.90;;;;;;5025445;28;20701;-64
2023/05/26 06:21:19;;;;;;;11.93;9.30;;;16.50;99.90;;;;;;5026915;28;20187;-65
2023/05/26 06:23:44;;;;;;;12.67;10.50;;;16.60;99.90;;;;;;5024704;28;20665;-65
2023/05/26 06:26:10;;;;;;;14.13;9.70;;;16.60;99.90;;;;;;5031433;28;20564;-64
2023/05/26 06:28:35;;;;;;;18.60;9.87;;;16.70;99.90;;;;;;5029953;28;20219;-65
2023/05/26 06:31:01;;;;;;;14.30;9.00;;;16.70;99.90;;;;;;5028376;28;20180;-65
2023/05/26 06:33:26;;;;;;;12.17;9.67;;;16.70;99.90;;;;;;5022280;28;20616;-65
2023/05/26 06:35:52;;;;;;;11.50;9.30;;;16.90;99.90;;;;;;5026723;28;20208;-65
2023/05/26 06:38:18;;;;;;;10.20;8.50;;;16.90;99.90;;;;;;5026101;28;20205;-65
2023/05/26 06:40:43;;;;;;;12.33;9.90;;;16.90;99.90;;;;;;5028794;28;20187;-65
2023/05/26 06:43:09;;;;;;;14.20;10.23;;;16.90;99.90;;;;;;5024751;28;20961;-65
2023/05/26 06:45:34;;;;;;;15.70;10.03;;;17.00;99.90;;;;;;5025653;28;20675;-65
2023/05/26 06:48:00;;;;;;;18.47;13.80;;;17.00;99.90;;;;;;5025353;28;20176;-65
2023/05/26 06:50:25;;;;;;;29.30;23.93;;;17.00;99.90;;;;;;5027106;28;20188;-65
2023/05/26 06:52:51;;;;;;;14.60;11.50;;;17.10;99.90;;;;;;5023098;28;20209;-65
2023/05/26 06:55:17;;;;;;;18.20;11.00;;;17.20;99.90;;;;;;5037444;28;20207;-65
2023/05/26 06:57:43;;;;;;;20.57;11.40;;;17.20;99.90;;;;;;5022021;28;20193;-65
2023/05/26 07:00:10;;;;;;;20.43;16.43;;;17.30;99.90;;;;;;5029090;28;20191;-65
2023/05/26 07:02:35;;;;;;;19.43;14.07;;;17.30;99.90;;;;;;5024429;28;20427;-65
2023/05/26 07:05:01;;;;;;;17.23;10.80;;;17.30;99.90;;;;;;5028378;28;20866;-65
2023/05/26 07:07:27;;;;;;;14.97;12.90;;;17.40;99.90;;;;;;5020728;28;20177;-65
2023/05/26 07:09:53;;;;;;;15.50;9.93;;;17.50;99.90;;;;;;5022713;28;20438;-65
2023/05/26 07:12:19;;;;;;;12.47;11.10;;;17.50;99.90;;;;;;5023289;28;20238;-65
2023/05/26 07:14:46;;;;;;;16.77;10.70;;;17.50;99.90;;;;;;5027042;28;20680;-65
2023/05/26 07:17:12;;;;;;;19.37;11.67;;;17.60;99.90;;;;;;5019835;28;20509;-65
2023/05/26 07:19:37;;;;;;;13.60;10.77;;;17.60;99.90;;;;;;5024765;28;20592;-65
2023/05/26 07:22:04;;;;;;;13.50;10.47;;;17.70;99.90;;;;;;5025590;28;20177;-65
2023/05/26 07:24:29;;;;;;;16.13;11.23;;;17.80;99.90;;;;;;5024233;28;20180;-65
2023/05/26 07:26:55;;;;;;;20.13;11.17;;;17.80;99.90;;;;;;5023798;28;20442;-65
2023/05/26 07:29:20;;;;;;;13.13;10.87;;;17.90;99.90;;;;;;5025717;28;20280;-65
2023/05/26 07:31:46;;;;;;;12.30;9.50;;;17.90;99.90;;;;;;5026942;28;20580;-65
2023/05/26 07:34:12;;;;;;;18.43;16.57;;;18.00;99.90;;;;;;5026226;28;20369;-65
2023/05/26 07:36:37;;;;;;;25.70;19.43;;;18.10;99.90;;;;;;5013534;28;20703;-65
2023/05/26 07:39:03;;;;;;;18.13;12.30;;;18.10;99.90;;;;;;5024166;28;20189;-65
2023/05/26 07:41:28;;;;;;;11.17;9.43;;;18.20;99.90;;;;;;5023841;28;20557;-65
2023/05/26 07:43:54;;;;;;;13.53;10.07;;;18.20;99.90;;;;;;5020440;28;20181;-65
2023/05/26 07:46:20;;;;;;;13.43;10.30;;;18.20;99.90;;;;;;5017907;28;20188;-65
2023/05/26 07:48:46;;;;;;;11.97;10.20;;;18.30;99.90;;;;;;5022890;28;20542;-65
2023/05/26 07:51:12;;;;;;;11.43;9.97;;;18.30;99.90;;;;;;5027951;28;20181;-65
2023/05/26 07:53:37;;;;;;;17.50;11.60;;;18.40;99.90;;;;;;5030616;28;20488;-65
2023/05/26 07:56:03;;;;;;;17.73;12.37;;;18.50;99.90;;;;;;5026219;28;20645;-65
2023/05/26 07:58:29;;;;;;;15.60;12.10;;;18.50;99.90;;;;;;5029990;28;20191;-65
2023/05/26 08:00:54;;;;;;;14.33;11.10;;;18.60;99.90;;;;;;5023254;28;20204;-65
2023/05/26 08:03:20;;;;;;;14.13;10.10;;;18.60;99.90;;;;;;5020252;28;20181;-65
2023/05/26 08:05:45;;;;;;;15.53;9.40;;;18.60;99.90;;;;;;5023152;28;20177;-65
2023/05/26 08:08:11;;;;;;;12.40;9.87;;;18.70;99.90;;;;;;5020202;28;20197;-65
2023/05/26 08:10:36;;;;;;;22.70;10.87;;;18.70;99.90;;;;;;5022924;28;20865;-65
2023/05/26 08:13:02;;;;;;;17.43;10.77;;;18.80;99.90;;;;;;5021424;28;20536;-66
2023/05/26 08:15:27;;;;;;;15.33;9.93;;;18.90;99.80;;;;;;5024945;28;20667;-65
2023/05/26 08:17:53;;;;;;;11.50;9.20;;;18.90;99.80;;;;;;5025548;28;20176;-65
2023/05/26 08:20:19;;;;;;;11.37;8.77;;;19.00;99.80;;;;;;5026212;28;20943;-65
2023/05/26 08:22:45;;;;;;;10.43;9.30;;;19.10;99.70;;;;;;5023751;28;20172;-65
2023/05/26 08:25:12;;;;;;;11.67;8.67;;;19.10;99.50;;;;;;5019155;28;20542;-65
2023/05/26 08:27:38;;;;;;;13.40;8.73;;;19.20;99.40;;;;;;5022474;28;20265;-65
2023/05/26 08:30:04;;;;;;;14.03;9.33;;;19.30;99.40;;;;;;5027688;28;20516;-65
2023/05/26 08:32:30;;;;;;;13.20;10.50;;;19.30;99.50;;;;;;5030602;28;20207;-65
2023/05/26 08:34:56;;;;;;;15.30;12.80;;;19.40;99.60;;;;;;5025991;28;20498;-65
2023/05/26 08:37:21;;;;;;;14.87;10.17;;;19.40;99.50;;;;;;5020253;28;20177;-65
2023/05/26 08:39:47;;;;;;;17.43;10.20;;;19.50;99.30;;;;;;5020389;28;20592;-65
2023/05/26 08:42:19;;;;;;;14.97;10.20;;;19.50;99.20;;;;;;5025740;28;20976;-65
2023/05/26 08:44:45;;;;;;;14.93;11.43;;;19.60;99.00;;;;;;5020684;28;20701;-65
2023/05/26 08:47:12;;;;;;;10.37;9.20;;;19.70;98.90;;;;;;5022177;28;20434;-65
2023/05/26 08:49:47;;;;;;;12.40;10.20;;;19.80;98.30;;;;;;5022625;28;20625;-65
2023/05/26 08:52:14;;;;;;;12.80;8.60;;;19.80;98.00;;;;;;5027481;28;20410;-65
2023/05/26 08:54:44;;;;;;;13.53;8.87;;;19.90;97.40;;;;;;5025317;28;20543;-65
2023/05/26 08:57:12;;;;;;;13.20;9.10;;;19.90;97.40;;;;;;5028182;28;20407;-65
2023/05/26 08:59:39;;;;;;;11.60;8.80;;;19.90;97.30;;;;;;5028335;28;20427;-65
2023/05/26 09:02:06;;;;;;;15.37;9.20;;;19.90;97.30;;;;;;5029366;28;20517;-65
2023/05/26 09:04:31;;;;;;;15.93;12.27;;;20.00;97.60;;;;;;5026878;28;20422;-65
2023/05/26 09:06:58;;;;;;;17.90;10.37;;;20.00;97.20;;;;;;5027539;28;20819;-65
2023/05/26 09:09:24;;;;;;;14.90;10.20;;;20.10;97.20;;;;;;5021463;28;20212;-65
2023/05/26 09:11:49;;;;;;;12.63;11.33;;;20.20;97.20;;;;;;5026092;28;20438;-65
2023/05/26 09:14:17;;;;;;;13.60;10.60;;;20.30;96.90;;;;;;5019453;28;20454;-65
2023/05/26 09:16:43;;;;;;;16.50;10.03;;;20.30;97.10;;;;;;5020935;28;20428;-65
2023/05/26 09:19:18;;;;;;;13.03;8.80;;;20.30;96.90;;;;;;5021878;28;20454;-65
2023/05/26 09:21:46;;;;;;;9.00;8.10;;;20.40;97.10;;;;;;5027313;28;20402;-65
2023/05/26 09:24:15;;;;;;;11.73;9.40;;;20.50;96.90;;;;;;5027183;28;20439;-65
2023/05/26 09:26:41;;;;;;;12.70;8.90;;;20.60;96.70;;;;;;5030288;28;20423;-65
2023/05/26 09:29:06;;;;;;;9.20;8.00;;;20.70;96.50;;;;;;5029562;28;20484;-65
2023/05/26 09:31:43;;;;;;;12.23;9.00;;;20.80;96.20;;;;;;5031586;28;20188;-65
2023/05/26 09:34:10;;;;;;;13.80;8.73;;;20.80;95.90;;;;;;5026743;28;20241;-65
2023/05/26 09:36:37;;;;;;;11.63;8.50;;;21.00;95.70;;;;;;5024305;28;20411;-65
2023/05/26 09:39:05;;;;;;;9.97;8.50;;;21.00;95.50;;;;;;5025364;28;20451;-65
2023/05/26 09:41:38;;;;;;;12.27;8.50;;;21.10;95.40;;;;;;5029974;28;20478;-65
2023/05/26 09:44:11;;;;;;;14.30;8.13;;;21.10;95.30;;;;;;5023759;28;20403;-65
2023/05/26 09:46:37;;;;;;;12.70;8.00;;;21.20;95.00;;;;;;5032945;28;20422;-65
2023/05/26 09:49:17;;;;;;;8.87;8.00;;;21.20;94.80;;;;;;5028721;28;20505;-65
2023/05/26 09:51:48;;;;;;;11.50;9.43;;;21.30;95.10;;;;;;5024426;28;20442;-65
2023/05/26 09:54:14;;;;;;;26.77;17.50;;;21.30;94.60;;;;;;5022802;28;20505;-65
2023/05/26 09:56:53;;;;;;;19.50;13.13;;;21.30;93.90;;;;;;5027378;28;20419;-65
2023/05/26 09:59:20;;;;;;;23.17;16.77;;;21.40;93.80;;;;;;5021747;28;20427;-65
2023/05/26 10:01:46;;;;;;;23.70;15.60;;;21.50;93.80;;;;;;5023954;28;20441;-65
2023/05/26 10:04:14;;;;;;;12.13;9.50;;;21.60;93.80;;;;;;5026624;28;20407;-65
2023/05/26 10:06:41;;;;;;;18.40;14.50;;;21.70;94.00;;;;;;5029633;28;20948;-66
2023/05/26 10:09:08;;;;;;;15.30;11.40;;;21.80;94.00;;;;;;5026677;28;20434;-65
2023/05/26 10:11:41;;;;;;;9.87;8.60;;;21.80;94.10;;;;;;5025606;28;20446;-65
2023/05/26 10:14:07;;;;;;;19.07;15.13;;;21.90;93.70;;;;;;5022783;28;20422;-65
2023/05/26 10:16:33;;;;;;;21.13;10.43;;;22.00;93.60;;;;;;5029273;28;20921;-65
2023/05/26 10:18:59;;;;;;;11.77;10.00;;;22.00;93.30;;;;;;5022809;28;20453;-65
2023/05/26 10:21:38;;;;;;;10.67;9.23;;;22.10;93.00;;;;;;5025735;28;20424;-65
2023/05/26 10:24:27;;;;;;;12.50;10.50;;;22.20;92.80;;;;;;5029490;28;20554;-65
2023/05/26 10:27:23;;;;;;;15.10;11.17;;;22.30;92.20;;;;;;5022417;28;20961;-65
2023/05/26 10:29:57;;;;;;;13.77;9.60;;;22.30;91.70;;;;;;5025498;28;20454;-65
2023/05/26 10:32:46;;;;;;;13.97;8.83;;;22.30;92.00;;;;;;5024083;28;20815;-65
2023/05/26 10:35:27;;;;;;;12.60;9.07;;;22.40;91.50;;;;;;5053952;28;20465;-65
2023/05/26 10:38:01;;;;;;;10.13;9.13;;;22.40;91.40;;;;;;5021661;28;21004;-65
2023/05/26 10:40:36;;;;;;;13.77;8.63;;;22.50;91.50;;;;;;5027350;28;20919;-65
2023/05/26 10:43:03;;;;;;;13.10;9.40;;;22.50;91.10;;;;;;5023544;28;20955;-65
2023/05/26 10:45:33;;;;;;;10.70;8.20;;;22.60;90.70;;;;;;5022188;28;20459;-65
2023/05/26 10:48:06;;;;;;;12.37;9.37;;;22.70;90.60;;;;;;5024136;28;20839;-65
2023/05/26 10:50:59;;;;;;;12.17;8.80;;;22.80;90.30;;;;;;5026672;28;20415;-65
2023/05/26 10:53:46;;;;;;;10.53;8.40;;;22.90;90.10;;;;;;5025691;28;20422;-65
2023/05/26 10:56:14;;;;;;;12.03;8.67;;;22.90;89.70;;;;;;5021990;28;20566;-65
2023/05/26 10:58:50;;;;;;;13.13;11.20;;;23.00;89.00;;;;;;5021376;28;20450;-64
2023/05/26 11:01:26;;;;;;;11.33;8.63;;;23.10;88.90;;;;;;5022908;28;21125;-65
2023/05/26 11:04:12;;;;;;;9.27;8.27;;;23.20;88.20;;;;;;5023976;28;20778;-65
2023/05/26 11:06:52;;;;;;;10.50;9.00;;;23.30;87.10;;;;;;5022251;28;20447;-65
2023/05/26 11:09:23;;;;;;;13.03;8.80;;;23.40;87.10;;;;;;5026571;28;20434;-65
2023/05/26 11:11:57;;;;;;;9.43;8.40;;;23.50;87.10;;;;;;5015151;28;20443;-65
2023/05/26 11:14:31;;;;;;;11.43;9.03;;;23.60;87.00;;;;;;5024066;28;20496;-65
2023/05/26 11:16:59;;;;;;;11.10;7.87;;;23.70;87.40;;;;;;5017869;28;20419;-65
2023/05/26 11:19:28;;;;;;;12.20;9.27;;;23.90;87.30;;;;;;5024281;28;20451;-65
2023/05/26 11:21:54;;;;;;;12.47;8.97;;;24.00;86.10;;;;;;5027514;28;20422;-65
2023/05/26 11:24:21;;;;;;;14.33;9.67;;;24.10;84.80;;;;;;5023706;28;20525;-65
2023/05/26 11:26:48;;;;;;;11.70;10.10;;;24.20;83.90;;;;;;5026995;28;20169;-65
2023/05/26 11:29:13;;;;;;;9.30;8.20;;;24.30;84.70;;;;;;5025264;28;20440;-65
2023/05/26 11:31:39;;;;;;;8.73;7.93;;;24.50;84.00;;;;;;5025755;28;20470;-65
2023/05/26 11:34:05;;;;;;;10.33;8.00;;;24.60;83.30;;;;;;5024403;28;20678;-65
2023/05/26 11:36:30;;;;;;;11.83;8.50;;;24.70;82.50;;;;;;5019890;28;20573;-65
2023/05/26 11:39:00;;;;;;;9.00;7.70;;;24.80;81.80;;;;;;5027623;28;20303;-65
2023/05/26 11:41:27;;;;;;;16.97;7.83;;;24.90;80.30;;;;;;5025711;28;20180;-65
2023/05/26 11:43:54;;;;;;;9.50;8.20;;;25.00;80.30;;;;;;5019712;28;20941;-65
2023/05/26 11:46:20;;;;;;;11.20;7.70;;;25.30;77.90;;;;;;5025511;28;20417;-65
2023/05/26 11:48:46;;;;;;;8.83;7.63;;;25.50;77.70;;;;;;5024663;28;20443;-65
2023/05/26 11:51:19;;;;;;;8.50;7.70;;;25.80;75.00;;;;;;5024857;28;20935;-65
2023/05/26 11:53:56;;;;;;;11.13;8.60;;;26.20;75.50;;;;;;5023119;28;20731;-65
2023/05/26 11:56:32;;;;;;;9.10;8.20;;;26.50;74.40;;;;;;5020970;28;20510;-65
2023/05/26 11:58:58;;;;;;;8.90;7.70;;;27.20;73.10;;;;;;5028007;28;20451;-65
2023/05/26 12:01:27;;;;;;;7.73;6.73;;;28.10;70.80;;;;;;5025972;28;20431;-65
2023/05/26 12:03:56;;;;;;;9.67;7.30;;;29.60;67.30;;;;;;5023730;28;20485;-65
2023/05/26 12:06:23;;;;;;;9.80;7.23;;;31.60;61.50;;;;;;5030156;28;20406;-65
2023/05/26 12:08:59;;;;;;;10.07;7.33;;;33.30;56.30;;;;;;5022628;28;20458;-65
2023/05/26 12:11:31;;;;;;;8.47;6.83;;;34.60;52.80;;;;;;5028454;28;20509;-66
2023/05/26 12:13:58;;;;;;;8.97;7.43;;;36.00;49.70;;;;;;5020766;28;20454;-63
2023/05/26 12:16:33;;;;;;;7.83;7.07;;;37.20;47.60;;;;;;5029304;28;20439;-66
2023/05/26 12:19:05;;;;;;;7.50;6.00;;;38.00;43.40;;;;;;5019813;28;20458;-66
2023/05/26 12:21:31;;;;;;;11.27;6.60;;;38.50;40.40;;;;;;5016579;28;20426;-66
2023/05/26 12:23:59;;;;;;;8.23;6.60;;;39.20;39.50;;;;;;5017603;28;20443;-63
2023/05/26 12:26:27;;;;;;;9.97;6.93;;;39.90;37.30;;;;;;5025150;28;20421;-64
2023/05/26 12:29:10;;;;;;;7.43;6.30;;;40.10;35.70;;;;;;5023825;28;20459;-64
2023/05/26 12:31:43;;;;;;;8.60;6.93;;;40.50;35.30;;;;;;5022292;28;20471;-64
2023/05/26 12:34:10;;;;;;;6.70;6.00;;;40.70;34.60;;;;;;5030653;28;20403;-64
2023/05/26 12:36:36;;;;;;;7.63;6.40;;;40.90;34.50;;;;;;5019132;28;20824;-64
2023/05/26 12:39:03;;;;;;;7.83;6.00;;;41.20;33.70;;;;;;5024878;28;20431;-64